sensor_id;sensor_type;location;lat;lon;timestamp;pressure;altitude;pressure_sealevel;temperature;humidity
54816;BME280;40715;55.752;37.884;2023-01-29T00:01:36;99156.06;;;28.75;25.60
54816;BME280;40715;55.752;37.884;2023-01-29T00:04:03;99148.94;;;28.74;25.75
54816;BME280;40715;55.752;37.884;2023-01-29T00:06:30;99148.94;;;28.74;25.74
54816;BME280;40715;55.752;37.884;2023-01-29T00:08:58;99141.53;;;28.77;25.89
54816;BME280;40715;55.752;37.884;2023-01-29T00:11:25;99143.91;;;28.80;25.84
54816;BME280;40715;55.752;37.884;2023-01-29T00:13:52;99125.09;;;28.78;25.79
54816;BME280;40715;55.752;37.884;2023-01-29T00:16:19;99131.72;;;28.84;25.89
54816;BME280;40715;55.752;37.884;2023-01-29T00:18:46;99137.50;;;28.89;25.87
54816;BME280;40715;55.752;37.884;2023-01-29T00:21:16;99138.00;;;28.92;25.70
54816;BME280;40715;55.752;37.884;2023-01-29T00:23:44;99134.63;;;28.99;25.59
54816;BME280;40715;55.752;37.884;2023-01-29T00:26:11;99139.41;;;29.05;25.54
54816;BME280;40715;55.752;37.884;2023-01-29T00:28:38;99142.78;;;29.07;25.40
54816;BME280;40715;55.752;37.884;2023-01-29T00:31:09;99125.34;;;29.09;25.35
54816;BME280;40715;55.752;37.884;2023-01-29T00:33:36;99130.44;;;29.13;25.49
54816;BME280;40715;55.752;37.884;2023-01-29T00:36:05;99117.75;;;29.13;25.30
54816;BME280;40715;55.752;37.884;2023-01-29T00:38:33;99115.03;;;29.13;25.43
54816;BME280;40715;55.752;37.884;2023-01-29T00:41:11;99110.28;;;29.15;25.05
54816;BME280;40715;55.752;37.884;2023-01-29T00:43:57;99115.16;;;29.12;25.23
54816;BME280;40715;55.752;37.884;2023-01-29T00:46:42;99111.97;;;29.08;25.34
54816;BME280;40715;55.752;37.884;2023-01-29T00:49:11;99112.31;;;29.13;25.08
54816;BME280;40715;55.752;37.884;2023-01-29T00:51:38;99104.19;;;29.13;25.17
54816;BME280;40715;55.752;37.884;2023-01-29T00:54:05;99108.41;;;29.16;25.06
54816;BME280;40715;55.752;37.884;2023-01-29T00:56:35;99103.47;;;29.11;25.21
54816;BME280;40715;55.752;37.884;2023-01-29T00:59:04;99098.06;;;29.11;25.16
54816;BME280;40715;55.752;37.884;2023-01-29T01:01:32;99106.38;;;29.09;25.38
54816;BME280;40715;55.752;37.884;2023-01-29T01:04:17;99106.88;;;29.05;25.21
54816;BME280;40715;55.752;37.884;2023-01-29T01:06:44;99110.94;;;29.01;25.24
54816;BME280;40715;55.752;37.884;2023-01-29T01:09:11;99103.63;;;29.01;25.32
54816;BME280;40715;55.752;37.884;2023-01-29T01:11:56;99096.16;;;28.95;25.15
54816;BME280;40715;55.752;37.884;2023-01-29T01:14:23;99098.03;;;28.95;25.28
54816;BME280;40715;55.752;37.884;2023-01-29T01:16:50;99099.22;;;28.92;25.30
54816;BME280;40715;55.752;37.884;2023-01-29T01:19:17;99098.50;;;28.90;25.23
54816;BME280;40715;55.752;37.884;2023-01-29T01:21:43;99095.63;;;28.91;25.39
54816;BME280;40715;55.752;37.884;2023-01-29T01:24:12;99096.66;;;28.90;25.33
54816;BME280;40715;55.752;37.884;2023-01-29T01:26:39;99097.69;;;28.89;25.61
54816;BME280;40715;55.752;37.884;2023-01-29T01:29:06;99091.75;;;28.94;25.35
54816;BME280;40715;55.752;37.884;2023-01-29T01:31:33;99105.31;;;28.94;25.47
54816;BME280;40715;55.752;37.884;2023-01-29T01:34:00;99111.09;;;28.99;25.40
54816;BME280;40715;55.752;37.884;2023-01-29T01:36:27;99112.63;;;29.02;25.44
54816;BME280;40715;55.752;37.884;2023-01-29T01:38:54;99104.00;;;29.06;25.39
54816;BME280;40715;55.752;37.884;2023-01-29T01:41:21;99099.94;;;29.10;25.22
54816;BME280;40715;55.752;37.884;2023-01-29T01:43:53;99097.56;;;29.16;25.24
54816;BME280;40715;55.752;37.884;2023-01-29T01:46:21;99097.56;;;29.16;25.12
54816;BME280;40715;55.752;37.884;2023-01-29T01:48:58;99101.16;;;29.24;24.84
54816;BME280;40715;55.752;37.884;2023-01-29T01:51:29;99085.91;;;29.23;24.95
54816;BME280;40715;55.752;37.884;2023-01-29T01:54:06;99085.03;;;29.23;25.25
54816;BME280;40715;55.752;37.884;2023-01-29T01:56:37;99088.44;;;29.25;24.92
54816;BME280;40715;55.752;37.884;2023-01-29T01:59:09;99082.63;;;29.20;24.88
54816;BME280;40715;55.752;37.884;2023-01-29T02:01:38;99083.69;;;29.19;24.72
54816;BME280;40715;55.752;37.884;2023-01-29T02:04:11;99079.94;;;29.20;24.86
54816;BME280;40715;55.752;37.884;2023-01-29T02:07:02;99080.44;;;29.15;24.72
54816;BME280;40715;55.752;37.884;2023-01-29T02:09:53;99077.91;;;29.14;24.71
54816;BME280;40715;55.752;37.884;2023-01-29T02:12:25;99073.19;;;29.57;24.29
54816;BME280;40715;55.752;37.884;2023-01-29T02:14:55;99075.88;;;29.07;24.67
54816;BME280;40715;55.752;37.884;2023-01-29T02:17:22;99069.56;;;28.99;24.93
54816;BME280;40715;55.752;37.884;2023-01-29T02:28:09;99060.38;;;28.91;24.88
54816;BME280;40715;55.752;37.884;2023-01-29T02:41:15;99040.03;;;28.79;24.94
54816;BME280;40715;55.752;37.884;2023-01-29T02:43:59;99036.50;;;28.87;25.11
54816;BME280;40715;55.752;37.884;2023-01-29T02:46:52;99023.94;;;28.86;25.00
54816;BME280;40715;55.752;37.884;2023-01-29T02:49:37;99027.19;;;28.89;25.14
54816;BME280;40715;55.752;37.884;2023-01-29T02:54:46;99028.53;;;28.93;25.07
54816;BME280;40715;55.752;37.884;2023-01-29T02:57:22;99020.59;;;29.00;25.03
54816;BME280;40715;55.752;37.884;2023-01-29T02:59:57;99014.66;;;29.05;24.74
54816;BME280;40715;55.752;37.884;2023-01-29T03:02:44;99002.28;;;29.10;24.81
54816;BME280;40715;55.752;37.884;2023-01-29T03:05:20;99000.06;;;29.14;24.71
54816;BME280;40715;55.752;37.884;2023-01-29T03:07:55;99000.59;;;29.18;24.78
54816;BME280;40715;55.752;37.884;2023-01-29T03:10:36;99000.59;;;29.18;24.88
54816;BME280;40715;55.752;37.884;2023-01-29T03:13:13;99001.25;;;29.20;24.43
54816;BME280;40715;55.752;37.884;2023-01-29T03:15:48;98997.72;;;29.19;24.46
54816;BME280;40715;55.752;37.884;2023-01-29T03:18:22;98995.53;;;29.15;24.56
54816;BME280;40715;55.752;37.884;2023-01-29T03:21:38;98995.00;;;29.11;24.40
54816;BME280;40715;55.752;37.884;2023-01-29T03:24:05;98986.03;;;29.10;24.60
54816;BME280;40715;55.752;37.884;2023-01-29T03:26:53;98980.94;;;29.07;24.56
54816;BME280;40715;55.752;37.884;2023-01-29T03:29:41;98971.44;;;29.03;24.49
54816;BME280;40715;55.752;37.884;2023-01-29T03:32:27;98968.03;;;29.01;24.53
54816;BME280;40715;55.752;37.884;2023-01-29T03:35:02;98964.84;;;28.98;24.55
54816;BME280;40715;55.752;37.884;2023-01-29T03:37:41;98965.50;;;29.00;24.45
54816;BME280;40715;55.752;37.884;2023-01-29T03:40:10;98956.34;;;28.92;24.62
54816;BME280;40715;55.752;37.884;2023-01-29T03:45:43;98955.00;;;28.88;24.71
54816;BME280;40715;55.752;37.884;2023-01-29T03:53:56;98940.56;;;28.71;24.94
54816;BME280;40715;55.752;37.884;2023-01-29T04:01:50;98924.31;;;28.80;24.86
54816;BME280;40715;55.752;37.884;2023-01-29T04:06:49;98919.41;;;28.91;24.72
54816;BME280;40715;55.752;37.884;2023-01-29T04:09:27;98912.13;;;28.92;24.74
54816;BME280;40715;55.752;37.884;2023-01-29T04:12:04;98907.03;;;28.97;24.70
54816;BME280;40715;55.752;37.884;2023-01-29T04:14:35;98908.56;;;29.00;24.50
54816;BME280;40715;55.752;37.884;2023-01-29T04:17:10;98899.72;;;29.06;24.71
54816;BME280;40715;55.752;37.884;2023-01-29T04:19:38;98907.88;;;29.14;24.49
54816;BME280;40715;55.752;37.884;2023-01-29T04:22:11;98901.09;;;29.18;24.27
54816;BME280;40715;55.752;37.884;2023-01-29T04:24:40;98905.00;;;29.24;24.10
54816;BME280;40715;55.752;37.884;2023-01-29T04:29:53;98902.28;;;29.32;24.07
54816;BME280;40715;55.752;37.884;2023-01-29T04:43:57;98886.50;;;29.19;24.10
54816;BME280;40715;55.752;37.884;2023-01-29T04:49:13;98882.78;;;29.12;24.02
54816;BME280;40715;55.752;37.884;2023-01-29T04:51:48;98889.56;;;29.08;23.90
54816;BME280;40715;55.752;37.884;2023-01-29T04:57:00;98892.97;;;29.02;23.86
54816;BME280;40715;55.752;37.884;2023-01-29T04:59:31;98893.16;;;29.00;23.96
54816;BME280;40715;55.752;37.884;2023-01-29T05:02:00;98879.91;;;28.97;24.06
54816;BME280;40715;55.752;37.884;2023-01-29T05:04:31;98879.25;;;28.95;24.08
54816;BME280;40715;55.752;37.884;2023-01-29T05:07:07;98881.78;;;28.97;24.26
54816;BME280;40715;55.752;37.884;2023-01-29T05:09:36;98871.28;;;28.93;23.96
54816;BME280;40715;55.752;37.884;2023-01-29T05:12:06;98870.28;;;28.86;24.30
54816;BME280;40715;55.752;37.884;2023-01-29T05:14:36;98875.53;;;28.88;24.13
54816;BME280;40715;55.752;37.884;2023-01-29T05:17:17;98876.03;;;28.91;24.21
54816;BME280;40715;55.752;37.884;2023-01-29T05:19:45;98871.94;;;28.87;24.31
54816;BME280;40715;55.752;37.884;2023-01-29T05:22:15;98873.81;;;28.87;24.37
54816;BME280;40715;55.752;37.884;2023-01-29T05:24:43;98869.94;;;28.89;24.29
54816;BME280;40715;55.752;37.884;2023-01-29T05:27:17;98869.94;;;28.89;24.47
54816;BME280;40715;55.752;37.884;2023-01-29T05:30:03;98881.13;;;28.95;24.17
54816;BME280;40715;55.752;37.884;2023-01-29T05:32:30;98879.59;;;29.00;24.17
54816;BME280;40715;55.752;37.884;2023-01-29T05:34:57;98880.75;;;29.06;24.22
54816;BME280;40715;55.752;37.884;2023-01-29T05:37:24;98880.44;;;29.09;24.17
54816;BME280;40715;55.752;37.884;2023-01-29T05:39:51;98886.16;;;29.14;23.99
54816;BME280;40715;55.752;37.884;2023-01-29T05:42:18;98882.09;;;29.18;23.95
54816;BME280;40715;55.752;37.884;2023-01-29T05:44:45;98877.19;;;29.22;23.94
54816;BME280;40715;55.752;37.884;2023-01-29T05:47:12;98884.47;;;29.21;23.84
54816;BME280;40715;55.752;37.884;2023-01-29T05:49:38;98886.00;;;29.24;23.92
54816;BME280;40715;55.752;37.884;2023-01-29T05:52:05;98877.88;;;29.24;23.80
54816;BME280;40715;55.752;37.884;2023-01-29T05:54:32;98884.13;;;29.24;23.83
54816;BME280;40715;55.752;37.884;2023-01-29T05:56:59;98886.72;;;29.26;23.90
54816;BME280;40715;55.752;37.884;2023-01-29T05:59:26;98880.41;;;29.25;24.05
54816;BME280;40715;55.752;37.884;2023-01-29T06:01:53;98887.03;;;29.23;23.84
54816;BME280;40715;55.752;37.884;2023-01-29T06:04:19;98888.38;;;29.19;23.93
54816;BME280;40715;55.752;37.884;2023-01-29T06:06:47;98880.25;;;29.19;24.06
54816;BME280;40715;55.752;37.884;2023-01-29T06:09:14;98887.69;;;29.17;24.15
54816;BME280;40715;55.752;37.884;2023-01-29T06:11:41;98880.56;;;29.16;24.21
54816;BME280;40715;55.752;37.884;2023-01-29T06:14:08;98884.50;;;29.13;24.29
54816;BME280;40715;55.752;37.884;2023-01-29T06:16:35;98880.44;;;29.09;24.34
54816;BME280;40715;55.752;37.884;2023-01-29T06:19:02;98880.09;;;29.04;24.50
54816;BME280;40715;55.752;37.884;2023-01-29T06:21:29;98879.59;;;29.00;24.67
54816;BME280;40715;55.752;37.884;2023-01-29T06:23:55;98873.47;;;28.98;24.75
54816;BME280;40715;55.752;37.884;2023-01-29T06:26:22;98874.66;;;28.96;24.65
54816;BME280;40715;55.752;37.884;2023-01-29T06:28:49;98868.41;;;28.95;24.65
54816;BME280;40715;55.752;37.884;2023-01-29T06:31:17;98868.56;;;28.93;24.93
54816;BME280;40715;55.752;37.884;2023-01-29T06:34:03;98873.91;;;29.43;24.26
54816;BME280;40715;55.752;37.884;2023-01-29T06:36:30;98862.63;;;28.98;24.79
54816;BME280;40715;55.752;37.884;2023-01-29T06:38:58;98859.09;;;28.89;25.00
54816;BME280;40715;55.752;37.884;2023-01-29T06:41:25;98864.50;;;28.89;25.03
54816;BME280;40715;55.752;37.884;2023-01-29T06:43:53;98859.94;;;28.90;25.23
54816;BME280;40715;55.752;37.884;2023-01-29T06:46:20;98868.56;;;28.93;25.23
54816;BME280;40715;55.752;37.884;2023-01-29T06:48:47;98867.22;;;28.98;25.35
54816;BME280;40715;55.752;37.884;2023-01-29T06:51:14;98863.16;;;29.02;25.25
54816;BME280;40715;55.752;37.884;2023-01-29T06:53:41;98867.69;;;29.09;25.31
54816;BME280;40715;55.752;37.884;2023-01-29T06:56:10;98867.19;;;29.14;25.08
54816;BME280;40715;55.752;37.884;2023-01-29T06:58:37;98863.78;;;29.20;25.05
54816;BME280;40715;55.752;37.884;2023-01-29T07:01:07;98855.34;;;29.23;24.92
54816;BME280;40715;55.752;37.884;2023-01-29T07:03:34;98840.41;;;29.27;25.00
54816;BME280;40715;55.752;37.884;2023-01-29T07:06:01;98843.78;;;29.30;24.97
54816;BME280;40715;55.752;37.884;2023-01-29T07:08:28;98837.69;;;29.27;24.88
54816;BME280;40715;55.752;37.884;2023-01-29T07:10:59;98836.47;;;29.30;24.64
54816;BME280;40715;55.752;37.884;2023-01-29T07:13:26;98840.25;;;29.29;24.58
54816;BME280;40715;55.752;37.884;2023-01-29T07:15:57;98828.69;;;29.27;24.63
54816;BME280;40715;55.752;37.884;2023-01-29T07:18:24;98824.47;;;29.24;24.69
54816;BME280;40715;55.752;37.884;2023-01-29T07:20:51;98819.34;;;29.21;24.66
54816;BME280;40715;55.752;37.884;2023-01-29T07:23:17;98835.63;;;29.21;24.64
54816;BME280;40715;55.752;37.884;2023-01-29T07:25:44;98835.81;;;29.20;24.53
54816;BME280;40715;55.752;37.884;2023-01-29T07:28:11;98826.31;;;29.16;24.52
54816;BME280;40715;55.752;37.884;2023-01-29T07:30:38;98830.91;;;29.15;24.56
54816;BME280;40715;55.752;37.884;2023-01-29T07:33:07;98836.88;;;29.10;24.40
54816;BME280;40715;55.752;37.884;2023-01-29T07:35:39;98826.38;;;29.07;24.43
54816;BME280;40715;55.752;37.884;2023-01-29T07:38:08;98825.03;;;29.03;24.51
54816;BME280;40715;55.752;37.884;2023-01-29T07:40:35;98832.47;;;29.01;24.36
54816;BME280;40715;55.752;37.884;2023-01-29T07:43:04;98829.25;;;28.98;24.51
54816;BME280;40715;55.752;37.884;2023-01-29T07:45:33;98831.09;;;28.97;24.50
54816;BME280;40715;55.752;37.884;2023-01-29T07:48:00;98823.16;;;28.96;24.31
54816;BME280;40715;55.752;37.884;2023-01-29T07:50:27;98830.63;;;28.93;24.44
54816;BME280;40715;55.752;37.884;2023-01-29T07:52:54;98827.91;;;28.93;24.45
54816;BME280;40715;55.752;37.884;2023-01-29T07:55:21;98828.56;;;28.96;24.22
54816;BME280;40715;55.752;37.884;2023-01-29T07:57:57;98824.19;;;28.95;24.44
54816;BME280;40715;55.752;37.884;2023-01-29T08:00:24;98815.72;;;28.98;24.30
54816;BME280;40715;55.752;37.884;2023-01-29T08:02:51;98803.50;;;28.93;24.65
54816;BME280;40715;55.752;37.884;2023-01-29T08:05:18;98811.66;;;28.93;24.37
54816;BME280;40715;55.752;37.884;2023-01-29T08:07:51;98806.88;;;28.96;24.55
54816;BME280;40715;55.752;37.884;2023-01-29T08:10:32;98813.31;;;29.03;24.12
54816;BME280;40715;55.752;37.884;2023-01-29T08:13:00;98805.84;;;29.05;24.14
54816;BME280;40715;55.752;37.884;2023-01-29T08:15:27;98809.38;;;29.14;23.98
54816;BME280;40715;55.752;37.884;2023-01-29T08:17:54;98787.00;;;29.20;23.96
54816;BME280;40715;55.752;37.884;2023-01-29T08:20:24;98787.69;;;29.22;23.79
54816;BME280;40715;55.752;37.884;2023-01-29T08:23:02;98779.38;;;29.32;23.77
54816;BME280;40715;55.752;37.884;2023-01-29T08:25:29;98779.84;;;29.35;23.72
54816;BME280;40715;55.752;37.884;2023-01-29T08:27:57;98773.59;;;29.35;23.46
54816;BME280;40715;55.752;37.884;2023-01-29T08:30:26;98767.81;;;29.38;23.61
54816;BME280;40715;55.752;37.884;2023-01-29T08:32:53;98782.03;;;29.40;23.47
54816;BME280;40715;55.752;37.884;2023-01-29T08:35:20;98783.06;;;29.39;23.54
54816;BME280;40715;55.752;37.884;2023-01-29T08:37:54;98783.91;;;29.39;23.51
54816;BME280;40715;55.752;37.884;2023-01-29T08:40:22;98780.84;;;29.34;23.58
54816;BME280;40715;55.752;37.884;2023-01-29T08:42:49;98777.50;;;29.32;23.38
54816;BME280;40715;55.752;37.884;2023-01-29T08:45:16;98784.09;;;29.30;23.47
54816;BME280;40715;55.752;37.884;2023-01-29T08:47:47;98793.44;;;29.27;23.54
54816;BME280;40715;55.752;37.884;2023-01-29T08:50:15;98785.66;;;29.24;23.35
54816;BME280;40715;55.752;37.884;2023-01-29T08:52:44;98783.94;;;29.23;23.47
54816;BME280;40715;55.752;37.884;2023-01-29T08:55:11;98782.44;;;29.20;23.23
54816;BME280;40715;55.752;37.884;2023-01-29T08:57:38;98780.72;;;29.19;23.30
54816;BME280;40715;55.752;37.884;2023-01-29T09:00:06;98771.25;;;29.15;23.47
54816;BME280;40715;55.752;37.884;2023-01-29T09:02:36;98771.59;;;29.12;23.36
54816;BME280;40715;55.752;37.884;2023-01-29T09:05:03;98771.78;;;29.10;23.51
54816;BME280;40715;55.752;37.884;2023-01-29T09:07:31;98774.66;;;29.09;23.46
54816;BME280;40715;55.752;37.884;2023-01-29T09:09:57;98761.09;;;29.09;23.47
54816;BME280;40715;55.752;37.884;2023-01-29T09:12:24;98759.59;;;29.06;23.43
54816;BME280;40715;55.752;37.884;2023-01-29T09:14:51;98761.44;;;29.06;23.48
54816;BME280;40715;55.752;37.884;2023-01-29T09:17:18;98751.63;;;29.05;23.59
54816;BME280;40715;55.752;37.884;2023-01-29T09:19:45;98765.84;;;29.07;23.54
54816;BME280;40715;55.752;37.884;2023-01-29T09:22:12;98751.44;;;29.06;23.63
54816;BME280;40715;55.752;37.884;2023-01-29T09:24:39;98756.34;;;29.11;23.62
54816;BME280;40715;55.752;37.884;2023-01-29T09:27:06;98761.22;;;29.16;23.53
54816;BME280;40715;55.752;37.884;2023-01-29T09:29:33;98756.13;;;29.21;23.29
54816;BME280;40715;55.752;37.884;2023-01-29T09:32:03;98753.09;;;29.24;23.45
54816;BME280;40715;55.752;37.884;2023-01-29T09:34:30;98741.53;;;29.30;23.15
54816;BME280;40715;55.752;37.884;2023-01-29T09:36:57;98743.06;;;29.33;23.28
54816;BME280;40715;55.752;37.884;2023-01-29T09:39:24;98730.84;;;29.37;23.43
54816;BME280;40715;55.752;37.884;2023-01-29T09:47:19;98710.97;;;29.44;23.03
54816;BME280;40715;55.752;37.884;2023-01-29T09:49:53;98711.31;;;29.41;22.78
54816;BME280;40715;55.752;37.884;2023-01-29T09:52:26;98721.31;;;29.41;22.99
54816;BME280;40715;55.752;37.884;2023-01-29T09:55:09;98709.50;;;29.34;23.26
54816;BME280;40715;55.752;37.884;2023-01-29T10:00:23;98717.84;;;29.16;23.11
54816;BME280;40715;55.752;37.884;2023-01-29T10:11:47;98698.56;;;29.10;23.10
54816;BME280;40715;55.752;37.884;2023-01-29T10:25:18;98667.25;;;29.00;22.96
54816;BME280;40715;55.752;37.884;2023-01-29T10:27:50;98657.75;;;28.96;22.95
54816;BME280;40715;55.752;37.884;2023-01-29T10:30:34;98653.50;;;29.01;23.10
54816;BME280;40715;55.752;37.884;2023-01-29T10:33:05;98643.00;;;28.98;23.18
54816;BME280;40715;55.752;37.884;2023-01-29T10:35:43;98643.16;;;29.05;23.10
54816;BME280;40715;55.752;37.884;2023-01-29T10:41:16;98626.50;;;29.16;23.15
54816;BME280;40715;55.752;37.884;2023-01-29T10:46:41;98609.44;;;29.07;23.31
54816;BME280;40715;55.752;37.884;2023-01-29T10:57:57;98599.66;;;29.30;22.63
54816;BME280;40715;55.752;37.884;2023-01-29T11:00:39;98603.31;;;29.37;22.71
54816;BME280;40715;55.752;37.884;2023-01-29T11:03:23;98600.75;;;29.43;22.80
54816;BME280;40715;55.752;37.884;2023-01-29T11:08:48;98592.41;;;29.45;22.88
54816;BME280;40715;55.752;37.884;2023-01-29T11:11:19;98589.28;;;29.33;22.99
54816;BME280;40715;55.752;37.884;2023-01-29T11:13:53;98600.16;;;29.33;23.03
54816;BME280;40715;55.752;37.884;2023-01-29T11:16:23;98597.63;;;29.32;23.03
54816;BME280;40715;55.752;37.884;2023-01-29T11:18:58;98582.63;;;29.36;23.48
54816;BME280;40715;55.752;37.884;2023-01-29T11:21:27;98584.69;;;29.34;23.63
54816;BME280;40715;55.752;37.884;2023-01-29T11:26:36;98579.78;;;29.37;23.53
54816;BME280;40715;55.752;37.884;2023-01-29T11:29:03;98579.41;;;29.40;23.57
54816;BME280;40715;55.752;37.884;2023-01-29T11:31:37;98578.53;;;29.40;23.60
54816;BME280;40715;55.752;37.884;2023-01-29T11:34:17;98580.88;;;29.43;23.92
54816;BME280;40715;55.752;37.884;2023-01-29T11:36:44;98582.31;;;29.39;23.92
54816;BME280;40715;55.752;37.884;2023-01-29T11:42:02;98573.75;;;29.50;24.09
54816;BME280;40715;55.752;37.884;2023-01-29T11:49:47;98563.50;;;29.37;24.41
54816;BME280;40715;55.752;37.884;2023-01-29T11:52:18;98572.34;;;29.31;24.62
54816;BME280;40715;55.752;37.884;2023-01-29T11:57:33;98560.59;;;29.39;24.63
54816;BME280;40715;55.752;37.884;2023-01-29T12:00:16;98561.13;;;29.34;24.50
54816;BME280;40715;55.752;37.884;2023-01-29T12:02:48;98549.94;;;29.37;24.51
54816;BME280;40715;55.752;37.884;2023-01-29T12:05:21;98561.63;;;29.38;24.48
54816;BME280;40715;55.752;37.884;2023-01-29T12:07:50;98559.38;;;29.41;24.71
54816;BME280;40715;55.752;37.884;2023-01-29T12:10:34;98561.19;;;29.49;24.44
54816;BME280;40715;55.752;37.884;2023-01-29T12:13:04;98553.41;;;29.46;24.44
54816;BME280;40715;55.752;37.884;2023-01-29T12:15:31;98547.25;;;29.52;24.47
54816;BME280;40715;55.752;37.884;2023-01-29T12:20:52;98556.34;;;29.59;24.33
54816;BME280;40715;55.752;37.884;2023-01-29T12:26:29;98561.97;;;29.73;24.53
54816;BME280;40715;55.752;37.884;2023-01-29T12:29:15;98554.69;;;29.73;24.73
54816;BME280;40715;55.752;37.884;2023-01-29T12:34:35;98543.16;;;29.71;24.58
54816;BME280;40715;55.752;37.884;2023-01-29T12:37:22;98545.69;;;29.73;24.51
54816;BME280;40715;55.752;37.884;2023-01-29T12:40:12;98540.13;;;29.74;24.71
54816;BME280;40715;55.752;37.884;2023-01-29T12:42:43;98541.97;;;29.74;24.47
54816;BME280;40715;55.752;37.884;2023-01-29T12:45:17;98542.81;;;29.74;24.40
54816;BME280;40715;55.752;37.884;2023-01-29T12:47:48;98544.22;;;29.70;24.15
54816;BME280;40715;55.752;37.884;2023-01-29T12:50:18;98543.16;;;29.71;24.06
54816;BME280;40715;55.752;37.884;2023-01-29T12:52:47;98536.25;;;29.69;24.10
54816;BME280;40715;55.752;37.884;2023-01-29T12:55:23;98541.19;;;29.65;24.13
54816;BME280;40715;55.752;37.884;2023-01-29T12:57:59;98559.19;;;29.66;24.30
54816;BME280;40715;55.752;37.884;2023-01-29T13:00:49;98542.16;;;29.72;24.07
54816;BME280;40715;55.752;37.884;2023-01-29T13:06:11;98538.47;;;29.50;24.07
54816;BME280;40715;55.752;37.884;2023-01-29T13:08:42;98552.38;;;29.47;23.98
54816;BME280;40715;55.752;37.884;2023-01-29T13:11:40;98543.41;;;29.61;24.15
54816;BME280;40715;55.752;37.884;2023-01-29T13:16:54;98536.81;;;29.41;24.21
54816;BME280;40715;55.752;37.884;2023-01-29T13:19:27;98530.84;;;29.46;24.33
54816;BME280;40715;55.752;37.884;2023-01-29T13:21:58;98526.47;;;29.44;24.34
54816;BME280;40715;55.752;37.884;2023-01-29T13:24:35;98527.59;;;29.50;24.28
54816;BME280;40715;55.752;37.884;2023-01-29T13:27:32;98520.69;;;29.63;24.52
54816;BME280;40715;55.752;37.884;2023-01-29T13:29:59;98525.84;;;29.57;24.35
54816;BME280;40715;55.752;37.884;2023-01-29T13:32:33;98516.13;;;29.63;24.40
54816;BME280;40715;55.752;37.884;2023-01-29T13:35:12;98516.50;;;29.75;24.63
54816;BME280;40715;55.752;37.884;2023-01-29T13:37:59;98517.59;;;29.89;24.31
54816;BME280;40715;55.752;37.884;2023-01-29T13:40:28;98508.66;;;29.80;24.08
54816;BME280;40715;55.752;37.884;2023-01-29T13:42:56;98506.78;;;29.81;24.27
54816;BME280;40715;55.752;37.884;2023-01-29T13:47:52;98515.75;;;29.81;24.36
54816;BME280;40715;55.752;37.884;2023-01-29T13:50:34;98512.34;;;29.87;24.38
54816;BME280;40715;55.752;37.884;2023-01-29T13:53:03;98506.78;;;29.81;24.41
54816;BME280;40715;55.752;37.884;2023-01-29T13:55:34;98504.44;;;29.77;24.53
54816;BME280;40715;55.752;37.884;2023-01-29T13:58:03;98503.41;;;29.78;24.74
54816;BME280;40715;55.752;37.884;2023-01-29T14:10:30;98510.91;;;29.76;24.88
54816;BME280;40715;55.752;37.884;2023-01-29T14:15:36;98498.91;;;29.71;25.07
54816;BME280;40715;55.752;37.884;2023-01-29T14:18:16;98501.94;;;29.76;25.13
54816;BME280;40715;55.752;37.884;2023-01-29T14:25:58;98483.72;;;29.61;24.96
54816;BME280;40715;55.752;37.884;2023-01-29T14:28:33;98481.00;;;29.61;25.11
54816;BME280;40715;55.752;37.884;2023-01-29T14:31:05;98474.28;;;29.57;25.32
54816;BME280;40715;55.752;37.884;2023-01-29T14:33:37;98469.19;;;29.54;25.29
54816;BME280;40715;55.752;37.884;2023-01-29T14:36:11;98471.28;;;29.52;25.35
54816;BME280;40715;55.752;37.884;2023-01-29T14:38:45;98474.63;;;29.54;25.25
54816;BME280;40715;55.752;37.884;2023-01-29T14:41:28;98472.88;;;29.61;25.33
54816;BME280;40715;55.752;37.884;2023-01-29T14:56:25;98473.78;;;29.92;25.45
54816;BME280;40715;55.752;37.884;2023-01-29T15:01:37;98478.13;;;29.78;26.15
54816;BME280;40715;55.752;37.884;2023-01-29T15:06:48;98482.53;;;29.79;26.91
54816;BME280;40715;55.752;37.884;2023-01-29T15:20:36;98471.56;;;29.72;27.59
54816;BME280;40715;55.752;37.884;2023-01-29T15:23:27;98463.25;;;29.74;27.48
54816;BME280;40715;55.752;37.884;2023-01-29T15:25:56;98470.81;;;29.64;27.88
54816;BME280;40715;55.752;37.884;2023-01-29T15:28:29;98469.50;;;29.59;28.32
54816;BME280;40715;55.752;37.884;2023-01-29T15:31:01;98468.88;;;29.57;28.36
54816;BME280;40715;55.752;37.884;2023-01-29T15:33:31;98474.09;;;29.59;28.91
54816;BME280;40715;55.752;37.884;2023-01-29T15:36:00;98476.50;;;29.54;29.22
54816;BME280;40715;55.752;37.884;2023-01-29T15:38:35;98478.59;;;29.52;29.24
54816;BME280;40715;55.752;37.884;2023-01-29T15:41:18;98479.72;;;29.57;29.39
54816;BME280;40715;55.752;37.884;2023-01-29T15:43:49;98483.53;;;29.48;29.99
54816;BME280;40715;55.752;37.884;2023-01-29T15:46:25;98481.19;;;29.45;30.20
54816;BME280;40715;55.752;37.884;2023-01-29T15:48:54;98477.44;;;29.46;29.87
54816;BME280;40715;55.752;37.884;2023-01-29T15:51:24;98480.16;;;29.46;30.06
54816;BME280;40715;55.752;37.884;2023-01-29T15:53:54;98474.53;;;29.48;29.90
54816;BME280;40715;55.752;37.884;2023-01-29T15:56:28;98467.91;;;29.50;29.72
54816;BME280;40715;55.752;37.884;2023-01-29T15:58:58;98459.59;;;29.52;29.95
54816;BME280;40715;55.752;37.884;2023-01-29T16:01:27;98466.34;;;29.56;29.89
54816;BME280;40715;55.752;37.884;2023-01-29T16:03:56;98465.28;;;29.57;29.93
54816;BME280;40715;55.752;37.884;2023-01-29T16:06:34;98462.88;;;29.62;29.58
54816;BME280;40715;55.752;37.884;2023-01-29T16:09:04;98471.13;;;29.69;29.58
54816;BME280;40715;55.752;37.884;2023-01-29T16:11:32;98465.13;;;29.73;29.68
54816;BME280;40715;55.752;37.884;2023-01-29T16:14:00;98452.50;;;29.81;29.44